Time;durP1;ratioP1;P1;durP2;ratioP2;P2;SDS_P1;SDS_P2;PMS_P1;PMS_P2;Temp;Humidity;BMP_temperature;BMP_pressure;BME280_temperature;BME280_humidity;BME280_pressure;Samples;Min_cycle;Max_cycle;Signal;HPM_P1;HPM_P2
2022/12/06 00:01:32;;;;;;;6.47;4.80;;;11.80;99.90;;;;;;5007081;28;20184;-75
2022/12/06 00:04:05;;;;;;;5.63;5.10;;;11.80;99.90;;;;;;5024436;28;20183;-76
2022/12/06 00:06:38;;;;;;;6.63;4.80;;;11.70;99.90;;;;;;5054546;28;20176;-75
2022/12/06 00:09:05;;;;;;;5.93;4.87;;;11.70;99.90;;;;;;5037470;28;20193;-76
2022/12/06 00:11:34;;;;;;;6.20;5.37;;;11.70;99.90;;;;;;5028542;28;20200;-76
2022/12/06 00:14:06;;;;;;;6.00;4.93;;;11.70;99.90;;;;;;5040488;28;20187;-75
2022/12/06 00:16:34;;;;;;;9.13;5.47;;;11.70;99.90;;;;;;5018682;28;20544;-75
2022/12/06 00:19:02;;;;;;;5.53;5.00;;;11.70;99.90;;;;;;5022905;28;20212;-75
2022/12/06 00:21:35;;;;;;;5.80;5.30;;;11.70;99.90;;;;;;5029261;28;20189;-75
2022/12/06 00:24:14;;;;;;;6.60;5.30;;;11.70;99.90;;;;;;5030560;28;20192;-75
2022/12/06 00:26:45;;;;;;;5.97;5.37;;;11.80;99.90;;;;;;5022779;28;20189;-75
2022/12/06 00:29:22;;;;;;;6.63;5.93;;;11.80;99.90;;;;;;5031799;28;20937;-75
2022/12/06 00:31:49;;;;;;;8.43;5.57;;;11.80;99.90;;;;;;5015999;28;20291;-75
2022/12/06 00:34:16;;;;;;;8.00;5.87;;;11.80;99.90;;;;;;5031458;28;20175;-75
2022/12/06 00:36:43;;;;;;;8.20;5.97;;;11.90;99.90;;;;;;5028402;28;20870;-75
2022/12/06 00:39:14;;;;;;;7.47;6.10;;;11.90;99.90;;;;;;5031792;28;20172;-76
2022/12/06 00:41:42;;;;;;;7.63;6.03;;;12.00;99.90;;;;;;5031914;28;20195;-75
2022/12/06 00:44:09;;;;;;;8.60;6.47;;;12.00;99.90;;;;;;5027415;28;20706;-76
2022/12/06 00:46:37;;;;;;;7.67;6.40;;;12.10;99.90;;;;;;5026153;28;20216;-76
2022/12/06 00:49:06;;;;;;;7.03;6.33;;;12.10;99.90;;;;;;5023749;28;20185;-76
2022/12/06 00:51:34;;;;;;;7.67;6.27;;;12.10;99.90;;;;;;5028278;28;20192;-76
2022/12/06 00:54:02;;;;;;;7.47;6.37;;;12.10;99.90;;;;;;5033652;28;20187;-76
2022/12/06 00:56:28;;;;;;;8.83;6.43;;;12.20;99.90;;;;;;5030289;28;20176;-76
2022/12/06 00:58:55;;;;;;;9.60;6.33;;;12.20;99.90;;;;;;5015840;28;20188;-76
2022/12/06 01:01:29;;;;;;;9.13;6.60;;;12.20;99.90;;;;;;5024256;28;20459;-75
2022/12/06 01:04:00;;;;;;;9.13;6.43;;;12.20;99.90;;;;;;5021055;28;20681;-74
2022/12/06 01:06:31;;;;;;;8.70;6.00;;;12.20;99.90;;;;;;5029211;28;20176;-75
2022/12/06 01:09:02;;;;;;;7.17;6.33;;;12.20;99.90;;;;;;5023172;28;20200;-75
2022/12/06 01:11:30;;;;;;;9.63;6.30;;;12.20;99.90;;;;;;5028652;28;20192;-75
2022/12/06 01:13:57;;;;;;;7.83;6.20;;;12.20;99.90;;;;;;5010716;28;20176;-75
2022/12/06 01:16:27;;;;;;;7.73;6.30;;;12.10;99.90;;;;;;5024625;28;20237;-75
2022/12/06 01:18:59;;;;;;;8.00;6.37;;;12.10;99.90;;;;;;5029498;28;20286;-75
2022/12/06 01:21:27;;;;;;;6.80;6.20;;;12.10;99.90;;;;;;5039704;28;20600;-75
2022/12/06 01:23:55;;;;;;;9.50;6.30;;;12.00;99.90;;;;;;5027603;28;20191;-75
2022/12/06 01:26:29;;;;;;;7.70;6.77;;;12.00;99.90;;;;;;5019684;28;20188;-75
2022/12/06 01:28:58;;;;;;;9.17;5.77;;;11.90;99.90;;;;;;5039953;28;20204;-75
2022/12/06 01:31:26;;;;;;;8.67;6.17;;;11.90;99.90;;;;;;5028620;28;20231;-74
2022/12/06 01:33:52;;;;;;;6.67;5.80;;;11.90;99.90;;;;;;5028450;28;20746;-75
2022/12/06 01:36:22;;;;;;;6.30;5.70;;;11.90;99.90;;;;;;5014649;28;20443;-75
2022/12/06 01:38:51;;;;;;;7.43;6.13;;;11.90;99.90;;;;;;5017206;28;20718;-74
2022/12/06 01:41:19;;;;;;;9.03;6.40;;;11.90;99.90;;;;;;5010585;28;20177;-75
2022/12/06 01:43:46;;;;;;;7.00;5.67;;;11.90;99.90;;;;;;5046106;28;20838;-75
2022/12/06 01:46:37;;;;;;;7.67;5.73;;;11.90;99.90;;;;;;5025275;28;20188;-75
2022/12/06 01:49:20;;;;;;;8.33;6.53;;;11.90;99.90;;;;;;5021615;28;20176;-74
2022/12/06 01:52:00;;;;;;;6.60;5.03;;;11.80;99.90;;;;;;5027017;28;20583;-74
2022/12/06 01:54:28;;;;;;;6.73;5.90;;;11.70;99.90;;;;;;5026483;28;20184;-75
2022/12/06 01:56:56;;;;;;;7.07;6.07;;;11.80;99.90;;;;;;5026490;28;20211;-75
2022/12/06 01:59:24;;;;;;;8.20;5.57;;;11.80;99.90;;;;;;5029298;28;20177;-74
2022/12/06 02:01:51;;;;;;;11.00;5.73;;;11.80;99.90;;;;;;5024541;28;20219;-75
2022/12/06 02:04:18;;;;;;;6.60;5.87;;;11.80;99.90;;;;;;5021128;28;20192;-75
2022/12/06 02:06:46;;;;;;;6.60;5.90;;;11.80;99.90;;;;;;5027459;28;20664;-74
2022/12/06 02:09:15;;;;;;;6.27;5.67;;;11.80;99.90;;;;;;5038644;28;20285;-74
2022/12/06 02:11:46;;;;;;;9.83;5.70;;;11.80;99.90;;;;;;5006112;28;20529;-75
2022/12/06 02:14:21;;;;;;;7.70;6.07;;;11.80;99.90;;;;;;5025752;28;20196;-74
2022/12/06 02:17:27;;;;;;;7.77;5.93;;;11.80;99.90;;;;;;5005646;28;20584;-74
2022/12/06 02:20:17;;;;;;;7.33;5.97;;;11.80;99.90;;;;;;5020099;28;20205;-74
2022/12/06 02:23:06;;;;;;;11.27;5.93;;;11.80;99.90;;;;;;5019466;28;20183;-74
2022/12/06 02:25:55;;;;;;;9.43;6.30;;;11.80;99.90;;;;;;5007527;28;20283;-74
2022/12/06 02:28:48;;;;;;;7.80;6.03;;;11.80;99.90;;;;;;5023068;28;20180;-74
2022/12/06 02:31:35;;;;;;;7.77;5.90;;;11.80;99.90;;;;;;5026453;28;20283;-74
2022/12/06 02:34:24;;;;;;;7.43;6.00;;;11.80;99.90;;;;;;5027728;28;20591;-74
2022/12/06 02:37:21;;;;;;;9.27;6.10;;;11.80;99.90;;;;;;5026675;28;20397;-74
2022/12/06 02:40:06;;;;;;;7.57;6.00;;;11.80;99.90;;;;;;5050698;28;20192;-75
2022/12/06 02:42:57;;;;;;;8.37;5.60;;;11.80;99.90;;;;;;5026183;28;20612;-74
2022/12/06 02:45:32;;;;;;;7.37;5.70;;;11.70;99.90;;;;;;5024312;28;20188;-75
2022/12/06 02:48:03;;;;;;;6.60;5.73;;;11.70;99.90;;;;;;5025474;28;20207;-75
2022/12/06 02:50:38;;;;;;;10.60;6.00;;;11.70;99.90;;;;;;5009950;28;20196;-75
2022/12/06 02:53:12;;;;;;;10.00;6.17;;;11.80;99.90;;;;;;5020765;28;20732;-74
2022/12/06 02:55:41;;;;;;;9.13;6.47;;;11.80;99.90;;;;;;5014953;28;20468;-74
2022/12/06 02:58:08;;;;;;;8.13;5.53;;;11.80;99.90;;;;;;5027369;28;20318;-74
2022/12/06 03:00:55;;;;;;;9.93;6.00;;;11.80;99.90;;;;;;5024843;28;20212;-74
2022/12/06 03:03:59;;;;;;;7.87;5.90;;;11.80;99.90;;;;;;5020189;28;20772;-74
2022/12/06 03:07:16;;;;;;;7.47;5.70;;;11.70;99.90;;;;;;5017290;28;20274;-76
2022/12/06 03:10:29;;;;;;;7.10;5.67;;;11.70;99.90;;;;;;5021452;28;20704;-73
2022/12/06 03:13:19;;;;;;;6.73;5.67;;;11.70;99.90;;;;;;5023812;28;20211;-74
2022/12/06 03:16:13;;;;;;;5.93;5.33;;;11.70;99.90;;;;;;5045586;28;20192;-74
2022/12/06 03:18:49;;;;;;;7.17;5.73;;;11.70;99.90;;;;;;5019841;28;20215;-73
2022/12/06 03:21:28;;;;;;;7.30;5.30;;;11.70;99.90;;;;;;5038248;28;20208;-74
2022/12/06 03:23:58;;;;;;;6.00;5.40;;;11.60;99.90;;;;;;5023647;28;20634;-73
2022/12/06 03:26:31;;;;;;;6.10;5.20;;;11.60;99.90;;;;;;5022068;28;20356;-73
2022/12/06 03:29:02;;;;;;;7.83;5.43;;;11.60;99.90;;;;;;5026757;28;20227;-73
2022/12/06 03:31:32;;;;;;;8.67;5.03;;;11.60;99.90;;;;;;5011870;28;20927;-73
2022/12/06 03:34:18;;;;;;;8.83;5.13;;;11.50;99.90;;;;;;5031249;28;20218;-74
2022/12/06 03:36:48;;;;;;;7.97;5.40;;;11.50;99.90;;;;;;5030383;28;20641;-74
2022/12/06 03:39:28;;;;;;;7.90;5.40;;;11.50;99.90;;;;;;5011734;28;20191;-74
2022/12/06 03:41:58;;;;;;;5.80;4.73;;;11.50;99.90;;;;;;5027981;28;20215;-74
2022/12/06 03:44:26;;;;;;;5.73;4.70;;;11.50;99.90;;;;;;5029164;28;20581;-74
2022/12/06 03:47:07;;;;;;;6.10;4.97;;;11.50;99.90;;;;;;5029367;28;20180;-74
2022/12/06 03:49:52;;;;;;;7.50;4.23;;;11.50;99.90;;;;;;5031346;28;20280;-74
2022/12/06 03:52:18;;;;;;;5.00;4.03;;;11.50;99.90;;;;;;5031642;28;20264;-74
2022/12/06 03:54:45;;;;;;;7.77;4.03;;;11.50;99.90;;;;;;5030059;28;20204;-74
2022/12/06 03:57:12;;;;;;;4.57;4.03;;;11.50;99.90;;;;;;5025563;28;20698;-74
2022/12/06 03:59:39;;;;;;;4.40;4.00;;;11.50;99.90;;;;;;5019026;28;20708;-74
2022/12/06 04:02:05;;;;;;;4.93;4.00;;;11.50;99.90;;;;;;5015937;28;20189;-73
2022/12/06 04:04:32;;;;;;;4.07;3.67;;;11.40;99.90;;;;;;5032893;28;20187;-74
2022/12/06 04:06:58;;;;;;;5.33;4.00;;;11.40;99.90;;;;;;5040601;28;20188;-73
2022/12/06 04:14:54;;;;;;;4.50;3.60;;;11.40;99.90;;;;;;5018091;28;20188;-74
2022/12/06 04:20:07;;;;;;;5.27;3.93;;;11.40;99.90;;;;;;5029144;28;20805;-74
2022/12/06 04:25:18;;;;;;;4.70;4.23;;;11.40;99.90;;;;;;5057536;28;20295;-74
2022/12/06 04:38:46;;;;;;;4.93;3.97;;;11.20;99.90;;;;;;5025039;28;20239;-74
2022/12/06 04:43:59;;;;;;;7.63;4.57;;;11.20;99.90;;;;;;5025312;28;20842;-74
2022/12/06 04:46:25;;;;;;;6.23;4.60;;;11.20;99.90;;;;;;5021180;28;20207;-74
2022/12/06 04:48:52;;;;;;;7.50;4.37;;;11.20;99.90;;;;;;5029020;28;20187;-74
2022/12/06 04:51:19;;;;;;;5.77;4.30;;;11.20;99.90;;;;;;5041572;28;20270;-74
2022/12/06 04:53:45;;;;;;;5.70;4.67;;;11.20;99.90;;;;;;5028298;28;20184;-74
2022/12/06 04:56:11;;;;;;;7.23;4.50;;;11.20;99.90;;;;;;5023687;28;20180;-74
2022/12/06 04:58:38;;;;;;;5.00;4.47;;;11.20;99.90;;;;;;5027657;28;20212;-74
2022/12/06 05:01:05;;;;;;;5.20;4.27;;;11.20;99.90;;;;;;5027385;28;20194;-74
2022/12/06 05:03:31;;;;;;;7.63;4.93;;;11.20;99.90;;;;;;5027082;28;20231;-74
2022/12/06 05:05:57;;;;;;;6.80;4.47;;;11.20;99.90;;;;;;5007402;28;20854;-74
2022/12/06 05:08:23;;;;;;;7.43;4.60;;;11.20;99.90;;;;;;4969682;28;1668103;-74
2022/12/06 05:10:51;;;;;;;4.70;4.20;;;11.20;99.90;;;;;;5028044;28;20570;-75
2022/12/06 05:13:19;;;;;;;5.10;4.03;;;11.20;99.90;;;;;;5029751;28;20194;-74
2022/12/06 05:15:56;;;;;;;7.07;4.83;;;11.20;99.90;;;;;;5038661;28;20188;-74
2022/12/06 05:18:24;;;;;;;5.17;4.67;;;11.30;99.90;;;;;;5019470;28;20261;-74
2022/12/06 05:21:03;;;;;;;6.33;4.30;;;11.20;99.90;;;;;;5033714;28;20192;-74
2022/12/06 05:23:30;;;;;;;7.27;4.30;;;11.30;99.90;;;;;;5026323;28;20811;-74
2022/12/06 05:26:10;;;;;;;4.77;4.30;;;11.30;99.90;;;;;;5031843;28;20191;-74
2022/12/06 05:28:37;;;;;;;5.37;4.07;;;11.30;99.90;;;;;;5025619;28;20196;-74
2022/12/06 05:31:04;;;;;;;5.93;4.37;;;11.30;99.90;;;;;;5025830;28;20215;-74
2022/12/06 05:33:31;;;;;;;6.80;4.50;;;11.30;99.90;;;;;;5026165;28;20204;-74
2022/12/06 05:35:58;;;;;;;6.60;4.50;;;11.30;99.90;;;;;;5025359;28;20215;-74
2022/12/06 05:38:25;;;;;;;5.73;4.23;;;11.40;99.90;;;;;;5022959;28;20579;-74
2022/12/06 05:40:53;;;;;;;9.57;4.20;;;11.40;99.90;;;;;;5023809;28;20188;-74
2022/12/06 05:43:19;;;;;;;8.37;4.20;;;11.40;99.90;;;;;;5043322;28;20187;-74
2022/12/06 05:45:45;;;;;;;7.73;4.43;;;11.50;99.90;;;;;;5018342;28;20331;-74
2022/12/06 05:48:11;;;;;;;5.57;3.57;;;11.50;99.90;;;;;;5045499;28;20191;-74
2022/12/06 05:50:38;;;;;;;12.53;4.47;;;11.50;99.90;;;;;;5026215;28;20231;-74
2022/12/06 05:53:04;;;;;;;4.27;3.87;;;11.60;99.90;;;;;;5028274;28;20211;-74
2022/12/06 05:55:30;;;;;;;4.20;3.80;;;11.60;99.90;;;;;;5008354;28;20769;-75
2022/12/06 05:57:56;;;;;;;8.80;4.03;;;11.60;99.90;;;;;;5022025;28;20261;-74
2022/12/06 06:00:23;;;;;;;5.20;3.90;;;11.70;99.90;;;;;;5021488;28;20191;-74
2022/12/06 06:02:49;;;;;;;5.20;3.47;;;11.70;99.90;;;;;;5025095;28;20191;-73
2022/12/06 06:05:16;;;;;;;5.10;3.70;;;11.80;99.90;;;;;;5034587;28;20220;-73
2022/12/06 06:07:42;;;;;;;4.70;3.83;;;11.80;99.90;;;;;;5022434;28;20207;-73
2022/12/06 06:10:09;;;;;;;5.77;4.17;;;11.90;99.90;;;;;;5029266;28;20246;-75
2022/12/06 06:12:36;;;;;;;4.10;3.70;;;11.90;99.90;;;;;;5026645;28;20747;-74
2022/12/06 06:15:05;;;;;;;5.27;3.83;;;12.00;99.90;;;;;;5022408;28;20251;-74
2022/12/06 06:17:36;;;;;;;4.23;3.60;;;12.00;99.90;;;;;;5019746;28;20278;-74
2022/12/06 06:20:04;;;;;;;4.37;3.87;;;12.10;99.90;;;;;;5026555;28;20211;-74
2022/12/06 06:22:33;;;;;;;4.50;3.70;;;12.10;99.90;;;;;;5025566;28;20215;-74
2022/12/06 06:25:00;;;;;;;8.90;3.93;;;12.20;99.90;;;;;;5018557;28;20266;-74
2022/12/06 06:27:27;;;;;;;4.77;3.67;;;12.30;99.90;;;;;;5025197;28;20200;-74
2022/12/06 06:29:53;;;;;;;4.07;3.70;;;12.30;99.90;;;;;;5019040;28;20196;-75
2022/12/06 06:32:19;;;;;;;5.73;3.80;;;12.40;99.90;;;;;;5025661;28;20188;-74
2022/12/06 06:34:46;;;;;;;5.87;3.70;;;12.40;99.90;;;;;;5021658;28;20204;-74
2022/12/06 06:37:13;;;;;;;4.23;3.83;;;12.40;99.90;;;;;;5029725;28;20257;-74
2022/12/06 06:39:42;;;;;;;3.90;3.60;;;12.50;99.90;;;;;;5027271;28;20185;-74
2022/12/06 06:42:09;;;;;;;4.97;3.50;;;12.50;99.90;;;;;;5027534;28;20541;-74
2022/12/06 06:44:35;;;;;;;5.07;3.87;;;12.60;99.90;;;;;;5028643;28;20894;-75
2022/12/06 06:47:01;;;;;;;4.43;3.73;;;12.60;99.90;;;;;;5027688;28;20183;-75
2022/12/06 06:49:29;;;;;;;5.67;3.67;;;12.60;99.90;;;;;;5028613;28;20184;-75
2022/12/06 06:51:55;;;;;;;4.73;4.07;;;12.70;99.90;;;;;;5026522;28;20593;-75
2022/12/06 06:54:22;;;;;;;5.53;4.23;;;12.70;99.90;;;;;;5024902;28;20280;-74
2022/12/06 06:56:49;;;;;;;4.30;3.90;;;12.80;99.90;;;;;;5032895;28;20242;-74
2022/12/06 06:59:15;;;;;;;4.77;4.27;;;12.80;99.90;;;;;;5021701;28;20193;-74
2022/12/06 07:01:42;;;;;;;6.30;4.33;;;12.90;99.90;;;;;;5027606;28;20649;-74
2022/12/06 07:04:09;;;;;;;5.57;4.00;;;12.90;99.90;;;;;;5025257;28;20344;-74
2022/12/06 07:06:35;;;;;;;12.10;4.60;;;12.90;99.90;;;;;;5031363;28;20593;-74
2022/12/06 07:09:02;;;;;;;4.87;3.97;;;13.00;99.90;;;;;;5026665;28;20716;-74
2022/12/06 07:11:28;;;;;;;5.50;3.80;;;13.00;99.90;;;;;;5014287;28;20201;-74
2022/12/06 07:13:54;;;;;;;5.73;3.97;;;13.00;99.90;;;;;;5028475;28;20282;-74
2022/12/06 07:16:21;;;;;;;5.53;3.77;;;13.00;99.90;;;;;;5018163;28;20189;-74
2022/12/06 07:18:48;;;;;;;5.47;3.97;;;13.00;99.90;;;;;;5004507;28;20207;-75
2022/12/06 07:21:16;;;;;;;4.75;3.78;;;13.00;99.90;;;;;;5027357;28;20437;-75
2022/12/06 07:23:42;;;;;;;4.80;3.93;;;13.00;99.90;;;;;;5031537;28;20260;-75
2022/12/06 07:26:15;;;;;;;4.80;4.03;;;13.20;99.90;;;;;;5022358;28;20202;-75
2022/12/06 07:28:44;;;;;;;4.30;3.63;;;13.60;99.90;;;;;;5019768;28;20189;-75
2022/12/06 07:31:23;;;;;;;5.93;4.00;;;13.70;99.90;;;;;;5020408;28;20245;-75
2022/12/06 07:33:58;;;;;;;3.63;3.30;;;13.60;99.90;;;;;;5027431;28;20180;-74
2022/12/06 07:36:28;;;;;;;4.90;3.63;;;13.50;99.90;;;;;;5018835;28;20806;-75
2022/12/06 07:38:57;;;;;;;5.57;3.80;;;13.40;99.90;;;;;;5027428;28;20215;-75
2022/12/06 07:47:00;;;;;;;5.23;3.50;;;13.40;99.90;;;;;;5018353;28;20185;-75
2022/12/06 07:49:27;;;;;;;5.23;3.93;;;13.40;99.90;;;;;;5027585;28;20219;-75
2022/12/06 07:51:54;;;;;;;4.60;3.43;;;13.40;99.90;;;;;;5008095;28;20183;-75
2022/12/06 07:54:21;;;;;;;4.47;3.47;;;13.40;99.90;;;;;;5041178;28;20192;-74
2022/12/06 07:56:47;;;;;;;5.57;3.43;;;13.40;99.90;;;;;;5023460;28;20176;-75
2022/12/06 07:59:14;;;;;;;4.13;3.17;;;13.40;99.90;;;;;;5018443;28;20185;-74
2022/12/06 08:01:41;;;;;;;5.80;3.23;;;13.50;99.90;;;;;;5015327;28;20772;-74
2022/12/06 08:04:08;;;;;;;5.37;3.40;;;13.60;99.90;;;;;;5022611;28;20185;-75
2022/12/06 08:06:35;;;;;;;4.40;3.27;;;13.60;99.90;;;;;;5027866;28;20192;-74
2022/12/06 08:09:02;;;;;;;4.47;3.03;;;13.60;99.90;;;;;;5031748;28;20695;-75
2022/12/06 08:11:28;;;;;;;4.53;2.97;;;13.60;99.90;;;;;;5012348;28;20201;-74
2022/12/06 08:13:54;;;;;;;4.10;3.20;;;13.60;99.90;;;;;;5046917;28;20188;-75
2022/12/06 08:16:21;;;;;;;28.57;4.63;;;13.70;99.90;;;;;;5020389;28;20219;-74
2022/12/06 08:18:47;;;;;;;11.60;4.00;;;13.80;99.90;;;;;;5021922;28;20212;-75
2022/12/06 08:21:15;;;;;;;7.30;3.30;;;13.80;99.90;;;;;;5031988;28;20215;-75
2022/12/06 08:23:41;;;;;;;5.33;3.27;;;13.90;99.90;;;;;;5048822;28;20754;-74
2022/12/06 08:26:17;;;;;;;5.33;3.47;;;13.90;99.90;;;;;;5022206;28;20185;-74
2022/12/06 08:28:44;;;;;;;4.30;3.50;;;14.00;99.90;;;;;;5021466;28;20196;-74
2022/12/06 08:31:22;;;;;;;5.53;3.93;;;14.00;99.90;;;;;;5029372;28;20212;-74
2022/12/06 08:33:49;;;;;;;4.47;3.73;;;14.00;99.90;;;;;;5038958;28;20325;-74
2022/12/06 08:36:23;;;;;;;5.33;4.43;;;14.00;99.90;;;;;;5017532;28;20230;-74
2022/12/06 08:38:50;;;;;;;6.93;4.13;;;14.10;99.90;;;;;;5037363;28;20208;-74
2022/12/06 08:44:04;;;;;;;5.23;3.83;;;14.00;99.90;;;;;;5018230;28;22294;-75
2022/12/06 08:46:33;;;;;;;5.10;3.73;;;14.00;99.90;;;;;;5023434;28;20184;-75
2022/12/06 08:49:00;;;;;;;4.43;3.90;;;14.00;99.90;;;;;;5005370;28;20223;-74
2022/12/06 08:51:27;;;;;;;4.37;3.77;;;14.10;99.90;;;;;;5024546;28;20196;-75
2022/12/06 08:53:54;;;;;;;4.80;3.80;;;14.10;99.90;;;;;;5034783;28;20193;-75
2022/12/06 08:56:23;;;;;;;5.97;3.93;;;14.10;99.90;;;;;;5022858;28;20762;-75
2022/12/06 08:58:52;;;;;;;6.30;3.83;;;14.20;99.90;;;;;;5018360;28;20247;-75
2022/12/06 09:01:22;;;;;;;4.30;3.70;;;14.30;99.90;;;;;;5035610;28;20188;-75
2022/12/06 09:03:48;;;;;;;4.40;3.93;;;14.40;99.90;;;;;;5035029;28;20595;-75
2022/12/06 09:06:16;;;;;;;5.00;4.10;;;14.40;99.90;;;;;;5023707;28;20211;-75
2022/12/06 09:08:44;;;;;;;5.37;4.40;;;14.50;99.90;;;;;;5054546;28;20208;-74
2022/12/06 09:11:10;;;;;;;5.20;4.30;;;14.50;99.90;;;;;;5036695;28;20196;-74
2022/12/06 09:13:39;;;;;;;6.33;4.53;;;14.60;99.90;;;;;;5028433;28;20301;-74
2022/12/06 09:16:12;;;;;;;5.63;4.43;;;14.60;99.90;;;;;;5026523;28;20458;-74
2022/12/06 09:18:39;;;;;;;7.17;4.50;;;14.70;99.90;;;;;;5023183;28;20366;-74
2022/12/06 09:21:07;;;;;;;5.00;4.50;;;14.70;99.90;;;;;;5034505;28;20207;-74
2022/12/06 09:23:35;;;;;;;8.67;4.70;;;14.70;99.90;;;;;;5024234;28;20267;-74
2022/12/06 09:26:04;;;;;;;5.07;3.87;;;14.70;99.90;;;;;;5006496;28;20311;-74
2022/12/06 09:28:33;;;;;;;7.47;4.40;;;14.70;99.90;;;;;;5007080;28;20642;-75
2022/12/06 09:31:01;;;;;;;5.50;3.80;;;14.80;99.90;;;;;;5021103;28;21238;-75
2022/12/06 09:33:27;;;;;;;5.13;3.83;;;15.10;99.90;;;;;;5020266;28;20227;-75
2022/12/06 09:35:54;;;;;;;6.60;3.87;;;15.20;99.90;;;;;;5018613;28;20197;-75
2022/12/06 09:38:24;;;;;;;5.40;3.90;;;15.30;99.90;;;;;;5017254;28;20220;-75
2022/12/06 09:41:15;;;;;;;6.07;4.17;;;15.40;99.90;;;;;;5020795;28;20200;-75
2022/12/06 09:44:30;;;;;;;6.20;4.90;;;15.60;99.90;;;;;;5006065;28;20262;-75
2022/12/06 09:47:12;;;;;;;5.50;4.33;;;15.60;99.90;;;;;;5013012;28;20208;-75
2022/12/06 09:50:14;;;;;;;5.70;4.57;;;15.50;99.90;;;;;;5019059;28;20573;-75
2022/12/06 09:53:00;;;;;;;6.13;4.20;;;15.50;99.90;;;;;;5017788;28;20196;-75
2022/12/06 09:56:00;;;;;;;5.17;4.63;;;15.50;99.90;;;;;;5023830;28;20202;-75
2022/12/06 09:59:04;;;;;;;5.27;4.27;;;15.40;99.90;;;;;;5048244;28;20230;-75
2022/12/06 10:02:07;;;;;;;6.10;4.83;;;15.30;99.90;;;;;;5020666;28;20309;-75
2022/12/06 10:05:09;;;;;;;11.90;7.00;;;15.20;99.90;;;;;;5023887;28;20196;-76
2022/12/06 10:08:25;;;;;;;14.20;9.23;;;15.20;99.90;;;;;;5021615;28;20199;-75
2022/12/06 10:11:06;;;;;;;18.87;9.93;;;15.10;99.90;;;;;;5004131;28;20203;-75
2022/12/06 10:13:51;;;;;;;17.30;11.03;;;15.10;99.90;;;;;;5018011;28;20188;-75
2022/12/06 10:17:03;;;;;;;17.13;11.30;;;15.10;99.90;;;;;;5022891;28;20199;-75
2022/12/06 10:20:22;;;;;;;12.43;7.00;;;15.10;99.90;;;;;;5027019;28;20196;-75
2022/12/06 10:23:48;;;;;;;10.67;5.67;;;15.20;99.90;;;;;;5028325;28;20271;-75
2022/12/06 10:26:44;;;;;;;5.20;4.30;;;15.20;99.90;;;;;;4992280;28;20708;-75
2022/12/06 10:29:13;;;;;;;7.57;4.00;;;15.20;99.90;;;;;;5035804;28;20212;-75
2022/12/06 10:31:59;;;;;;;4.87;3.57;;;15.20;99.90;;;;;;5050897;28;20595;-75
2022/12/06 10:34:47;;;;;;;3.83;3.43;;;15.20;99.90;;;;;;5027007;28;20207;-75
2022/12/06 10:37:53;;;;;;;7.30;3.43;;;15.20;99.90;;;;;;5020008;28;20211;-74
2022/12/06 10:40:44;;;;;;;6.50;3.33;;;15.10;99.90;;;;;;5014203;28;20178;-75
2022/12/06 10:43:27;;;;;;;6.33;3.37;;;15.10;99.90;;;;;;5023432;28;20193;-75
2022/12/06 10:49:30;;;;;;;4.20;3.00;;;15.00;99.90;;;;;;5015157;28;20737;-75
2022/12/06 10:52:24;;;;;;;5.53;3.40;;;14.90;99.90;;;;;;5025933;28;20334;-75
2022/12/06 10:55:35;;;;;;;3.37;3.00;;;14.90;99.90;;;;;;5016454;28;20184;-75
2022/12/06 10:58:36;;;;;;;5.97;3.63;;;14.80;99.90;;;;;;5024064;28;20219;-75
2022/12/06 11:01:18;;;;;;;5.70;3.60;;;14.80;99.90;;;;;;5016330;28;20875;-76
2022/12/06 11:04:18;;;;;;;6.10;4.40;;;14.80;99.90;;;;;;5010769;28;20189;-75
2022/12/06 11:07:14;;;;;;;13.07;8.63;;;14.90;99.90;;;;;;5015281;28;20172;-75
2022/12/06 11:09:48;;;;;;;13.73;8.27;;;15.00;99.90;;;;;;5010636;28;20327;-76
2022/12/06 11:12:37;;;;;;;11.53;7.57;;;15.20;99.90;;;;;;5001899;28;20195;-76
2022/12/06 11:15:21;;;;;;;15.73;10.20;;;15.40;99.90;;;;;;5016154;28;20605;-76
2022/12/06 11:18:03;;;;;;;12.67;6.83;;;15.50;99.90;;;;;;5031332;28;20213;-76
2022/12/06 11:20:40;;;;;;;13.73;8.03;;;15.60;99.90;;;;;;5030767;28;20355;-76
2022/12/06 11:23:24;;;;;;;21.13;12.50;;;15.80;99.90;;;;;;5032982;28;20181;-76
2022/12/06 11:25:59;;;;;;;18.93;11.40;;;15.80;99.90;;;;;;5018725;28;20222;-76
2022/12/06 11:28:54;;;;;;;7.73;5.37;;;15.90;99.90;;;;;;5033904;28;20720;-76
2022/12/06 11:31:26;;;;;;;6.97;5.40;;;16.00;99.90;;;;;;5032008;28;20187;-76
2022/12/06 11:33:53;;;;;;;7.97;5.70;;;16.20;99.90;;;;;;5026922;28;20508;-76
2022/12/06 11:36:21;;;;;;;7.47;5.60;;;16.30;99.90;;;;;;5002279;28;20193;-76
2022/12/06 11:38:48;;;;;;;10.03;5.00;;;16.20;99.90;;;;;;5026250;28;20270;-76
2022/12/06 11:41:25;;;;;;;6.73;4.83;;;16.00;99.90;;;;;;5005990;28;20193;-76
2022/12/06 11:43:54;;;;;;;6.87;5.00;;;15.90;99.90;;;;;;5033203;28;20728;-75
2022/12/06 11:46:22;;;;;;;7.03;4.30;;;15.80;99.90;;;;;;5030792;28;20250;-76
2022/12/06 11:48:50;;;;;;;6.43;4.27;;;15.60;99.90;;;;;;5014339;28;20612;-76
2022/12/06 11:51:24;;;;;;;6.07;4.47;;;15.50;99.90;;;;;;5024548;28;20735;-75
2022/12/06 11:54:21;;;;;;;5.17;3.73;;;15.50;99.90;;;;;;5045502;28;21063;-76
2022/12/06 11:56:48;;;;;;;11.03;4.43;;;15.60;99.90;;;;;;5024276;28;20191;-75
2022/12/06 11:59:30;;;;;;;8.23;4.43;;;15.70;99.90;;;;;;4991483;28;20219;-75
2022/12/06 12:02:01;;;;;;;10.63;4.70;;;15.80;99.90;;;;;;4995417;28;20190;-76
2022/12/06 12:04:30;;;;;;;5.80;3.80;;;15.80;99.90;;;;;;5020252;28;20649;-75
2022/12/06 12:07:09;;;;;;;5.77;3.57;;;15.90;99.90;;;;;;5034861;28;20216;-75
2022/12/06 12:09:52;;;;;;;5.97;3.63;;;15.80;99.90;;;;;;5019676;28;20683;-75
2022/12/06 12:15:32;;;;;;;5.27;3.57;;;15.70;99.90;;;;;;5026911;28;20309;-75
2022/12/06 12:18:02;;;;;;;5.10;3.43;;;15.60;99.90;;;;;;5029603;28;20222;-75
2022/12/06 12:20:43;;;;;;;4.70;3.30;;;15.50;99.90;;;;;;5035449;28;20207;-75
2022/12/06 12:23:45;;;;;;;7.77;3.50;;;15.50;99.90;;;;;;5015304;28;20180;-76
2022/12/06 12:26:15;;;;;;;6.10;3.83;;;15.40;99.90;;;;;;4998442;28;20196;-76
2022/12/06 12:29:02;;;;;;;4.10;3.60;;;15.30;99.90;;;;;;5036246;28;20223;-75
2022/12/06 12:31:29;;;;;;;3.87;3.40;;;15.30;99.90;;;;;;5018664;28;20224;-75
2022/12/06 12:34:29;;;;;;;3.93;3.33;;;15.20;99.90;;;;;;5029411;28;20640;-75
2022/12/06 12:37:03;;;;;;;5.50;3.63;;;15.20;99.90;;;;;;5050647;28;20188;-75
2022/12/06 12:39:52;;;;;;;6.13;3.50;;;15.20;99.90;;;;;;5028102;28;20669;-75
2022/12/06 12:42:33;;;;;;;5.33;3.87;;;15.10;99.90;;;;;;5024646;28;20210;-75
2022/12/06 12:45:04;;;;;;;4.70;3.87;;;15.10;99.90;;;;;;5026993;28;20172;-75
2022/12/06 12:47:31;;;;;;;6.13;3.70;;;15.10;99.90;;;;;;5025549;28;20271;-75
2022/12/06 12:50:19;;;;;;;5.33;3.67;;;15.10;99.90;;;;;;5034084;28;20342;-75
2022/12/06 12:52:46;;;;;;;6.33;3.70;;;15.10;99.90;;;;;;5022581;28;20267;-75
2022/12/06 12:55:24;;;;;;;9.43;3.73;;;15.10;99.90;;;;;;5003927;28;20250;-75
2022/12/06 12:57:58;;;;;;;6.53;3.60;;;15.10;99.90;;;;;;5048405;28;20204;-75
2022/12/06 13:00:34;;;;;;;4.63;3.43;;;15.10;99.90;;;;;;5020528;28;20790;-75
2022/12/06 13:03:16;;;;;;;5.20;3.70;;;15.10;99.90;;;;;;5020358;28;20238;-75
2022/12/06 13:05:46;;;;;;;4.73;3.67;;;15.20;99.90;;;;;;5029802;28;20180;-75
2022/12/06 13:08:33;;;;;;;6.07;3.77;;;15.20;99.90;;;;;;5006336;28;20677;-75
2022/12/06 13:11:05;;;;;;;5.77;3.80;;;15.30;99.90;;;;;;5023900;28;20207;-75
2022/12/06 13:13:49;;;;;;;6.70;4.03;;;15.20;99.90;;;;;;5028377;28;20661;-75
2022/12/06 13:16:33;;;;;;;7.20;3.90;;;15.20;99.90;;;;;;5011681;28;20197;-75
2022/12/06 13:19:00;;;;;;;5.73;4.57;;;15.20;99.90;;;;;;5032049;28;20208;-75
2022/12/06 13:21:36;;;;;;;51.37;6.27;;;15.10;99.90;;;;;;5036498;28;20495;-75
2022/12/06 13:24:20;;;;;;;63.23;6.23;;;15.10;99.90;;;;;;4997509;28;20203;-74
2022/12/06 13:26:58;;;;;;;11.33;4.50;;;15.10;99.90;;;;;;5042836;28;20665;-74
2022/12/06 13:29:59;;;;;;;5.17;4.00;;;15.00;99.90;;;;;;5017403;28;20254;-75
2022/12/06 13:32:50;;;;;;;9.93;4.50;;;14.90;99.90;;;;;;5029904;28;20721;-74
2022/12/06 13:35:28;;;;;;;7.10;4.27;;;14.90;99.90;;;;;;5019129;28;20191;-74
2022/12/06 13:38:17;;;;;;;7.87;4.27;;;14.90;99.90;;;;;;5015227;28;20238;-75
2022/12/06 13:40:54;;;;;;;14.10;5.33;;;14.90;99.90;;;;;;5014366;28;20180;-75
2022/12/06 13:43:23;;;;;;;4.60;3.93;;;14.90;99.90;;;;;;5025697;28;20537;-75
2022/12/06 13:46:08;;;;;;;7.43;4.10;;;14.90;99.90;;;;;;5017823;28;20475;-75
2022/12/06 13:49:04;;;;;;;6.00;4.70;;;14.80;99.90;;;;;;5039713;28;20196;-75
2022/12/06 13:51:33;;;;;;;9.60;4.80;;;14.80;99.90;;;;;;5014759;28;20232;-75
2022/12/06 13:54:11;;;;;;;7.13;4.20;;;14.80;99.90;;;;;;5014515;28;20212;-76
2022/12/06 13:56:40;;;;;;;5.90;4.30;;;14.80;99.90;;;;;;5028672;28;20230;-76
2022/12/06 13:59:14;;;;;;;5.03;3.97;;;14.80;99.90;;;;;;5020948;28;20221;-76
2022/12/06 14:01:53;;;;;;;5.37;4.10;;;14.80;99.90;;;;;;5021945;28;20219;-76
2022/12/06 14:04:26;;;;;;;6.27;3.90;;;14.70;99.90;;;;;;5022584;28;20180;-76